sensor_id;sensor_type;location;lat;lon;timestamp;pressure;altitude;pressure_sealevel;temperature;humidity
44309;BME280;30022;55.846;37.340;2023-04-01T00:00:32;54020.88;;;-143.51;100.00
44309;BME280;30022;55.846;37.340;2023-04-01T00:02:58;54299.88;;;-143.51;100.00
44309;BME280;30022;55.846;37.340;2023-04-01T00:05:23;54468.06;;;-143.51;100.00
44309;BME280;30022;55.846;37.340;2023-04-01T00:07:51;54212.81;;;-143.51;100.00
44309;BME280;30022;55.846;37.340;2023-04-01T00:10:17;54082.22;;;-143.51;100.00
44309;BME280;30022;55.846;37.340;2023-04-01T00:12:43;53878.44;;;-143.51;100.00
44309;BME280;30022;55.846;37.340;2023-04-01T00:15:10;53878.44;;;-143.51;100.00
44309;BME280;30022;55.846;37.340;2023-04-01T00:17:35;53979.34;;;-143.51;100.00
44309;BME280;30022;55.846;37.340;2023-04-01T00:20:02;53811.16;;;-143.51;100.00
44309;BME280;30022;55.846;37.340;2023-04-01T00:22:28;53461.00;;;-143.51;100.00
44309;BME280;30022;55.846;37.340;2023-04-01T00:24:53;53275.06;;;-143.51;100.00
44309;BME280;30022;55.846;37.340;2023-04-01T00:27:19;53241.41;;;-143.51;100.00
44309;BME280;30022;55.846;37.340;2023-04-01T00:29:45;53235.50;;;-143.51;100.00
44309;BME280;30022;55.846;37.340;2023-04-01T00:32:11;52952.63;;;-143.51;100.00
44309;BME280;30022;55.846;37.340;2023-04-01T00:34:37;52786.47;;;-143.51;100.00
44309;BME280;30022;55.846;37.340;2023-04-01T00:37:03;53002.06;;;-143.51;100.00
44309;BME280;30022;55.846;37.340;2023-04-01T00:39:29;53138.56;;;-143.51;100.00
44309;BME280;30022;55.846;37.340;2023-04-01T00:42:00;53486.72;;;-143.51;100.00
44309;BME280;30022;55.846;37.340;2023-04-01T00:44:28;53621.25;;;-143.51;100.00
44309;BME280;30022;55.846;37.340;2023-04-01T00:46:58;53785.44;;;-143.51;100.00
44309;BME280;30022;55.846;37.340;2023-04-01T00:49:25;53370.00;;;-143.51;100.00
44309;BME280;30022;55.846;37.340;2023-04-01T00:51:53;53002.06;;;-143.51;100.00
44309;BME280;30022;55.846;37.340;2023-04-01T00:54:21;53077.25;;;-143.51;100.00
44309;BME280;30022;55.846;37.340;2023-04-01T00:56:48;53195.94;;;-143.51;100.00
44309;BME280;30022;55.846;37.340;2023-04-01T00:59:16;53004.06;;;-143.51;100.00
44309;BME280;30022;55.846;37.340;2023-04-01T01:01:43;52865.59;;;-143.51;100.00
44309;BME280;30022;55.846;37.340;2023-04-01T01:04:22;52701.44;;;-143.51;100.00
44309;BME280;30022;55.846;37.340;2023-04-01T01:06:55;52295.97;;;-143.51;100.00
44309;BME280;30022;55.846;37.340;2023-04-01T01:09:29;52468.03;;;-143.51;100.00
44309;BME280;30022;55.846;37.340;2023-04-01T01:16:53;53067.34;;;-143.51;100.00
44309;BME280;30022;55.846;37.340;2023-04-01T01:27:19;53207.78;;;-143.51;100.00
44309;BME280;30022;55.846;37.340;2023-04-01T01:37:35;54317.69;;;-143.51;100.00
44309;BME280;30022;55.846;37.340;2023-04-01T01:40:04;54432.44;;;-143.51;100.00
44309;BME280;30022;55.846;37.340;2023-04-01T01:42:32;53803.25;;;-143.51;100.00
44309;BME280;30022;55.846;37.340;2023-04-01T01:44:58;53706.31;;;-143.51;100.00
44309;BME280;30022;55.846;37.340;2023-04-01T01:47:25;53476.84;;;-143.51;100.00
44309;BME280;30022;55.846;37.340;2023-04-01T01:49:52;53455.06;;;-143.51;100.00
44309;BME280;30022;55.846;37.340;2023-04-01T01:52:18;53520.34;;;-143.51;100.00
44309;BME280;30022;55.846;37.340;2023-04-01T01:54:51;53862.59;;;-143.51;100.00
44309;BME280;30022;55.846;37.340;2023-04-01T01:57:19;53951.66;;;-143.51;100.00
44309;BME280;30022;55.846;37.340;2023-04-01T01:59:49;54113.88;;;-143.51;100.00
44309;BME280;30022;55.846;37.340;2023-04-01T02:02:22;54438.38;;;-143.51;100.00
44309;BME280;30022;55.846;37.340;2023-04-01T02:04:49;54667.94;;;-143.51;100.00
44309;BME280;30022;55.846;37.340;2023-04-01T02:07:18;54731.25;;;-143.51;100.00
44309;BME280;30022;55.846;37.340;2023-04-01T02:09:45;54628.34;;;-143.51;100.00
44309;BME280;30022;55.846;37.340;2023-04-01T02:12:12;55138.91;;;-143.51;100.00
44309;BME280;30022;55.846;37.340;2023-04-01T02:14:45;55398.19;;;-143.51;100.00
44309;BME280;30022;55.846;37.340;2023-04-01T02:17:16;55734.69;;;-143.51;100.00
44309;BME280;30022;55.846;37.340;2023-04-01T02:19:46;55629.78;;;-143.51;100.00
44309;BME280;30022;55.846;37.340;2023-04-01T02:22:14;55431.84;;;-143.51;100.00
44309;BME280;30022;55.846;37.340;2023-04-01T02:24:41;55257.66;;;-143.51;100.00
44309;BME280;30022;55.846;37.340;2023-04-01T02:27:09;55200.28;;;-143.51;100.00
44309;BME280;30022;55.846;37.340;2023-04-01T02:29:35;54810.41;;;-143.51;100.00
44309;BME280;30022;55.846;37.340;2023-04-01T02:32:05;54822.28;;;-143.51;100.00
44309;BME280;30022;55.846;37.340;2023-04-01T02:34:32;54774.78;;;-143.51;100.00
44309;BME280;30022;55.846;37.340;2023-04-01T02:36:58;54913.31;;;-143.51;100.00
44309;BME280;30022;55.846;37.340;2023-04-01T02:39:24;55016.22;;;-143.51;100.00
44309;BME280;30022;55.846;37.340;2023-04-01T02:41:51;54986.53;;;-143.51;100.00
44309;BME280;30022;55.846;37.340;2023-04-01T02:44:17;54909.34;;;-143.51;100.00
44309;BME280;30022;55.846;37.340;2023-04-01T02:46:43;54877.69;;;-143.51;100.00
44309;BME280;30022;55.846;37.340;2023-04-01T02:49:08;54770.81;;;-143.51;100.00
44309;BME280;30022;55.846;37.340;2023-04-01T02:51:34;54561.06;;;-143.51;100.00
44309;BME280;30022;55.846;37.340;2023-04-01T02:54:00;54388.91;;;-143.51;100.00
44309;BME280;30022;55.846;37.340;2023-04-01T02:56:26;54268.22;;;-143.51;100.00
44309;BME280;30022;55.846;37.340;2023-04-01T02:58:52;54153.47;;;-143.51;100.00
44309;BME280;30022;55.846;37.340;2023-04-01T03:01:17;54398.81;;;-143.51;100.00
44309;BME280;30022;55.846;37.340;2023-04-01T03:03:43;54343.41;;;-143.51;100.00
44309;BME280;30022;55.846;37.340;2023-04-01T03:06:10;54879.66;;;-143.51;100.00
44309;BME280;30022;55.846;37.340;2023-04-01T03:08:36;55014.25;;;-143.51;100.00
44309;BME280;30022;55.846;37.340;2023-04-01T03:11:01;55061.75;;;-143.51;100.00
44309;BME280;30022;55.846;37.340;2023-04-01T03:13:28;53743.91;;;-143.51;100.00
44309;BME280;30022;55.846;37.340;2023-04-01T03:15:54;54418.59;;;-143.51;100.00
44309;BME280;30022;55.846;37.340;2023-04-01T03:18:20;54798.53;;;-143.51;100.00
44309;BME280;30022;55.846;37.340;2023-04-01T03:20:46;54869.78;;;-143.51;100.00
44309;BME280;30022;55.846;37.340;2023-04-01T03:23:11;54725.31;;;-143.51;100.00
44309;BME280;30022;55.846;37.340;2023-04-01T03:25:38;54770.81;;;-143.51;100.00
44309;BME280;30022;55.846;37.340;2023-04-01T03:28:03;54952.91;;;-143.51;100.00
44309;BME280;30022;55.846;37.340;2023-04-01T03:30:30;55103.31;;;-143.51;100.00
44309;BME280;30022;55.846;37.340;2023-04-01T03:32:57;55142.88;;;-143.51;100.00
44309;BME280;30022;55.846;37.340;2023-04-01T03:35:23;55063.72;;;-143.51;100.00
44309;BME280;30022;55.846;37.340;2023-04-01T03:37:52;55091.44;;;-143.51;100.00
44309;BME280;30022;55.846;37.340;2023-04-01T03:40:18;55032.06;;;-143.51;100.00
44309;BME280;30022;55.846;37.340;2023-04-01T03:42:44;55224.03;;;-143.51;100.00
44309;BME280;30022;55.846;37.340;2023-04-01T03:45:10;54723.34;;;-143.51;100.00
44309;BME280;30022;55.846;37.340;2023-04-01T03:47:38;55133.00;;;-143.51;100.00
44309;BME280;30022;55.846;37.340;2023-04-01T03:50:04;55580.28;;;-143.51;100.00
44309;BME280;30022;55.846;37.340;2023-04-01T03:52:30;55853.44;;;-143.51;100.00
44309;BME280;30022;55.846;37.340;2023-04-01T03:54:56;55782.19;;;-143.51;100.00
44309;BME280;30022;55.846;37.340;2023-04-01T03:57:22;55697.06;;;-143.51;100.00
44309;BME280;30022;55.846;37.340;2023-04-01T03:59:48;55487.25;;;-143.51;100.00
44309;BME280;30022;55.846;37.340;2023-04-01T04:02:13;55534.75;;;-143.51;100.00
44309;BME280;30022;55.846;37.340;2023-04-01T04:04:39;55297.25;;;-143.51;100.00
44309;BME280;30022;55.846;37.340;2023-04-01T04:07:06;54848.00;;;-143.51;100.00
44309;BME280;30022;55.846;37.340;2023-04-01T04:09:51;54685.75;;;-143.51;100.00
44309;BME280;30022;55.846;37.340;2023-04-01T04:12:17;54654.06;;;-143.51;100.00
44309;BME280;30022;55.846;37.340;2023-04-01T04:14:42;54707.50;;;-143.51;100.00
44309;BME280;30022;55.846;37.340;2023-04-01T04:17:09;54440.38;;;-143.51;100.00
44309;BME280;30022;55.846;37.340;2023-04-01T04:19:39;54464.09;;;-143.51;100.00
44309;BME280;30022;55.846;37.340;2023-04-01T04:22:04;54840.09;;;-143.51;100.00
44309;BME280;30022;55.846;37.340;2023-04-01T04:24:30;54365.16;;;-143.51;100.00
44309;BME280;30022;55.846;37.340;2023-04-01T04:27:01;54141.59;;;-143.51;100.00
44309;BME280;30022;55.846;37.340;2023-04-01T04:29:27;53815.13;;;-143.51;100.00
44309;BME280;30022;55.846;37.340;2023-04-01T04:31:53;53516.41;;;-143.51;100.00
44309;BME280;30022;55.846;37.340;2023-04-01T04:34:18;53377.91;;;-143.51;100.00
44309;BME280;30022;55.846;37.340;2023-04-01T04:36:44;53654.88;;;-143.51;100.00
44309;BME280;30022;55.846;37.340;2023-04-01T04:39:17;53235.50;;;-143.51;100.00
44309;BME280;30022;55.846;37.340;2023-04-01T04:41:43;53470.91;;;-143.51;100.00
44309;BME280;30022;55.846;37.340;2023-04-01T04:44:08;53793.38;;;-143.51;100.00
44309;BME280;30022;55.846;37.340;2023-04-01T04:46:34;53670.72;;;-143.51;100.00
44309;BME280;30022;55.846;37.340;2023-04-01T04:49:19;53364.06;;;-143.51;100.00
44309;BME280;30022;55.846;37.340;2023-04-01T04:51:45;52636.16;;;-143.51;100.00
44309;BME280;30022;55.846;37.340;2023-04-01T04:54:13;53116.81;;;-143.51;100.00
44309;BME280;30022;55.846;37.340;2023-04-01T04:56:54;53247.34;;;-143.51;100.00
44309;BME280;30022;55.846;37.340;2023-04-01T04:59:21;53494.63;;;-143.51;100.00
44309;BME280;30022;55.846;37.340;2023-04-01T05:02:01;53019.88;;;-143.51;100.00
44309;BME280;30022;55.846;37.340;2023-04-01T05:04:27;53219.66;;;-143.51;100.00
44309;BME280;30022;55.846;37.340;2023-04-01T05:06:53;53243.41;;;-143.51;100.00
44309;BME280;30022;55.846;37.340;2023-04-01T05:09:19;52841.84;;;-143.51;100.00
44309;BME280;30022;55.846;37.340;2023-04-01T05:11:45;53097.03;;;-143.51;100.00
44309;BME280;30022;55.846;37.340;2023-04-01T05:14:16;53178.13;;;-143.51;100.00
44309;BME280;30022;55.846;37.340;2023-04-01T05:16:50;53668.72;;;-143.51;100.00
44309;BME280;30022;55.846;37.340;2023-04-01T05:19:16;54363.19;;;-143.51;100.00
44309;BME280;30022;55.846;37.340;2023-04-01T05:21:42;53354.19;;;-143.51;100.00
44309;BME280;30022;55.846;37.340;2023-04-01T05:24:08;53991.22;;;-143.51;100.00
44309;BME280;30022;55.846;37.340;2023-04-01T05:26:35;53429.34;;;-143.51;100.00
44309;BME280;30022;55.846;37.340;2023-04-01T05:29:02;53051.53;;;-143.51;100.00
44309;BME280;30022;55.846;37.340;2023-04-01T05:31:28;53785.44;;;-143.51;100.00
44309;BME280;30022;55.846;37.340;2023-04-01T05:33:54;53765.66;;;-143.51;100.00
44309;BME280;30022;55.846;37.340;2023-04-01T05:36:20;53286.91;;;-143.51;100.00
44309;BME280;30022;55.846;37.340;2023-04-01T05:38:45;53383.84;;;-143.51;100.00
44309;BME280;30022;55.846;37.340;2023-04-01T05:41:12;52149.63;;;-143.51;100.00
44309;BME280;30022;55.846;37.340;2023-04-01T05:43:42;51969.69;;;-143.51;100.00
44309;BME280;30022;55.846;37.340;2023-04-01T05:46:40;52230.72;;;-143.51;100.00
44309;BME280;30022;55.846;37.340;2023-04-01T05:49:18;52699.44;;;-143.51;100.00
44309;BME280;30022;55.846;37.340;2023-04-01T05:51:45;53275.06;;;-143.51;100.00
44309;BME280;30022;55.846;37.340;2023-04-01T05:54:11;53900.19;;;-143.51;100.00
44309;BME280;30022;55.846;37.340;2023-04-01T05:56:37;54090.13;;;-143.51;100.00
44309;BME280;30022;55.846;37.340;2023-04-01T05:59:03;53227.56;;;-143.51;100.00
44309;BME280;30022;55.846;37.340;2023-04-01T06:01:29;53162.28;;;-143.51;100.00
44309;BME280;30022;55.846;37.340;2023-04-01T06:03:54;53077.25;;;-143.51;100.00
44309;BME280;30022;55.846;37.340;2023-04-01T06:06:24;54187.09;;;-143.51;100.00
44309;BME280;30022;55.846;37.340;2023-04-01T06:08:56;55439.75;;;-143.51;100.00
44309;BME280;30022;55.846;37.340;2023-04-01T06:11:28;55388.28;;;-143.51;100.00
44309;BME280;30022;55.846;37.340;2023-04-01T06:24:51;52936.81;;;-143.51;100.00
44309;BME280;30022;55.846;37.340;2023-04-01T06:27:27;53548.03;;;-143.51;100.00
44309;BME280;30022;55.846;37.340;2023-04-01T06:33:00;54844.06;;;-143.51;100.00
44309;BME280;30022;55.846;37.340;2023-04-01T06:46:36;55039.97;;;-143.51;100.00
44309;BME280;30022;55.846;37.340;2023-04-01T06:55:35;53828.97;;;-143.51;100.00
44309;BME280;30022;55.846;37.340;2023-04-01T06:58:39;52549.13;;;-143.51;100.00
44309;BME280;30022;55.846;37.340;2023-04-01T07:01:10;52740.97;;;-143.51;100.00
44309;BME280;30022;55.846;37.340;2023-04-01T07:03:38;52404.75;;;-143.51;100.00
44309;BME280;30022;55.846;37.340;2023-04-01T07:06:09;51477.31;;;-143.51;100.00
44309;BME280;30022;55.846;37.340;2023-04-01T07:08:43;51487.19;;;-143.51;100.00
44309;BME280;30022;55.846;37.340;2023-04-01T07:11:10;51325.06;;;-143.51;100.00
44309;BME280;30022;55.846;37.340;2023-04-01T07:14:17;52094.25;;;-143.51;100.00
44309;BME280;30022;55.846;37.340;2023-04-01T07:21:59;50909.88;;;-143.51;100.00
44309;BME280;30022;55.846;37.340;2023-04-01T07:24:37;51870.81;;;-143.51;100.00
44309;BME280;30022;55.846;37.340;2023-04-01T07:27:11;50682.53;;;-143.51;100.00
44309;BME280;30022;55.846;37.340;2023-04-01T07:29:38;50666.72;;;-143.51;100.00
44309;BME280;30022;55.846;37.340;2023-04-01T07:37:35;50848.59;;;-143.51;100.00
44309;BME280;30022;55.846;37.340;2023-04-01T07:40:14;50965.22;;;-143.51;100.00
44309;BME280;30022;55.846;37.340;2023-04-01T07:43:04;49988.72;;;-143.51;100.00
44309;BME280;30022;55.846;37.340;2023-04-01T07:48:46;49520.28;;;-143.51;100.00
44309;BME280;30022;55.846;37.340;2023-04-01T07:51:21;50134.97;;;-143.51;100.00
44309;BME280;30022;55.846;37.340;2023-04-01T07:53:50;50508.56;;;-143.51;100.00
44309;BME280;30022;55.846;37.340;2023-04-01T07:56:25;50405.78;;;-143.51;100.00
44309;BME280;30022;55.846;37.340;2023-04-01T08:01:45;49897.78;;;-143.51;100.00
44309;BME280;30022;55.846;37.340;2023-04-01T08:06:43;49775.25;;;-143.51;100.00
44309;BME280;30022;55.846;37.340;2023-04-01T08:10:16;50249.63;;;-143.51;100.00
44309;BME280;30022;55.846;37.340;2023-04-01T08:20:39;49581.56;;;-143.51;100.00
44309;BME280;30022;55.846;37.340;2023-04-01T08:23:11;49249.56;;;-143.51;100.00
44309;BME280;30022;55.846;37.340;2023-04-01T08:25:40;49664.56;;;-143.51;100.00
44309;BME280;30022;55.846;37.340;2023-04-01T08:28:17;50358.34;;;-143.51;100.00
44309;BME280;30022;55.846;37.340;2023-04-01T08:31:05;49840.47;;;-143.51;100.00
44309;BME280;30022;55.846;37.340;2023-04-01T08:33:32;50142.88;;;-143.51;100.00
44309;BME280;30022;55.846;37.340;2023-04-01T08:36:16;50342.53;;;-143.51;100.00
44309;BME280;30022;55.846;37.340;2023-04-01T08:38:47;50051.94;;;-143.51;100.00
44309;BME280;30022;55.846;37.340;2023-04-01T08:41:24;49870.13;;;-143.51;100.00
44309;BME280;30022;55.846;37.340;2023-04-01T08:44:27;49745.59;;;-143.51;100.00
44309;BME280;30022;55.846;37.340;2023-04-01T08:52:19;48925.47;;;-143.51;100.00
44309;BME280;30022;55.846;37.340;2023-04-01T09:00:49;49176.44;;;-143.51;100.00
44309;BME280;30022;55.846;37.340;2023-04-01T09:06:12;49476.81;;;-143.51;100.00
44309;BME280;30022;55.846;37.340;2023-04-01T09:19:16;49055.91;;;-143.51;100.00
44309;BME280;30022;55.846;37.340;2023-04-01T09:30:17;48854.34;;;-143.51;100.00
44309;BME280;30022;55.846;37.340;2023-04-01T09:35:38;49059.84;;;-143.51;100.00
44309;BME280;30022;55.846;37.340;2023-04-01T09:40:55;47925.75;;;-143.51;100.00
44309;BME280;30022;55.846;37.340;2023-04-01T09:46:09;48030.47;;;-143.51;100.00
44309;BME280;30022;55.846;37.340;2023-04-01T09:51:37;48269.50;;;-143.51;100.00
44309;BME280;30022;55.846;37.340;2023-04-01T10:02:52;47552.41;;;-143.51;100.00
44309;BME280;30022;55.846;37.340;2023-04-01T10:18:48;47659.06;;;-143.51;100.00
44309;BME280;30022;55.846;37.340;2023-04-01T11:09:17;47435.88;;;-143.51;100.00
44309;BME280;30022;55.846;37.340;2023-04-01T11:14:48;47313.41;;;-143.51;100.00
44309;BME280;30022;55.846;37.340;2023-04-01T11:22:44;47465.50;;;-143.51;100.00
44309;BME280;30022;55.846;37.340;2023-04-01T11:33:23;47167.25;;;-143.51;100.00
44309;BME280;30022;55.846;37.340;2023-04-01T11:44:53;47187.00;;;-143.51;100.00
44309;BME280;30022;55.846;37.340;2023-04-01T11:47:48;47214.63;;;-143.51;100.00
44309;BME280;30022;55.846;37.340;2023-04-01T11:50:25;47218.59;;;-143.51;100.00
44309;BME280;30022;55.846;37.340;2023-04-01T11:53:30;47230.44;;;-143.51;100.00
44309;BME280;30022;55.846;37.340;2023-04-01T12:06:43;47054.66;;;-143.51;100.00
44309;BME280;30022;55.846;37.340;2023-04-01T12:11:50;47125.75;;;-143.51;100.00
44309;BME280;30022;55.846;37.340;2023-04-01T12:14:21;47086.25;;;-143.51;100.00
44309;BME280;30022;55.846;37.340;2023-04-01T12:37:34;47040.84;;;-143.51;100.00
44309;BME280;30022;55.846;37.340;2023-04-01T12:40:20;46971.72;;;-143.51;100.00
44309;BME280;30022;55.846;37.340;2023-04-01T12:45:28;47082.31;;;-143.51;100.00
44309;BME280;30022;55.846;37.340;2023-04-01T12:53:07;47028.97;;;-143.51;100.00
44309;BME280;30022;55.846;37.340;2023-04-01T12:55:39;47048.72;;;-143.51;100.00
44309;BME280;30022;55.846;37.340;2023-04-01T13:11:37;46959.84;;;-143.51;100.00
44309;BME280;30022;55.846;37.340;2023-04-01T13:22:07;47009.22;;;-143.51;100.00
44309;BME280;30022;55.846;37.340;2023-04-01T13:24:42;46946.03;;;-143.51;100.00
44309;BME280;30022;55.846;37.340;2023-04-01T13:27:18;46965.78;;;-143.51;100.00
44309;BME280;30022;55.846;37.340;2023-04-01T13:37:22;47028.97;;;-143.51;100.00
44309;BME280;30022;55.846;37.340;2023-04-01T13:42:28;46985.53;;;-143.51;100.00
44309;BME280;30022;55.846;37.340;2023-04-01T13:45:01;46971.72;;;-143.51;100.00
44309;BME280;30022;55.846;37.340;2023-04-01T13:49:59;47001.34;;;-143.51;100.00
44309;BME280;30022;55.846;37.340;2023-04-01T13:52:39;46934.19;;;-143.51;100.00
44309;BME280;30022;55.846;37.340;2023-04-01T13:55:23;46894.69;;;-143.51;100.00
44309;BME280;30022;55.846;37.340;2023-04-01T13:58:04;46938.13;;;-143.51;100.00
44309;BME280;30022;55.846;37.340;2023-04-01T14:08:17;46916.41;;;-143.51;100.00
44309;BME280;30022;55.846;37.340;2023-04-01T14:11:05;46936.16;;;-143.51;100.00
44309;BME280;30022;55.846;37.340;2023-04-01T14:13:37;46878.88;;;-143.51;100.00
44309;BME280;30022;55.846;37.340;2023-04-01T14:16:31;46872.97;;;-143.51;100.00
44309;BME280;30022;55.846;37.340;2023-04-01T14:26:24;46910.47;;;-143.51;100.00
44309;BME280;30022;55.846;37.340;2023-04-01T14:34:15;46981.59;;;-143.51;100.00
44309;BME280;30022;55.846;37.340;2023-04-01T14:36:53;47072.44;;;-143.51;100.00
44309;BME280;30022;55.846;37.340;2023-04-01T14:39:43;47001.34;;;-143.51;100.00
44309;BME280;30022;55.846;37.340;2023-04-01T14:52:35;47005.28;;;-143.51;100.00
44309;BME280;30022;55.846;37.340;2023-04-01T14:55:01;47027.00;;;-143.51;100.00
44309;BME280;30022;55.846;37.340;2023-04-01T14:57:37;47104.03;;;-143.51;100.00
44309;BME280;30022;55.846;37.340;2023-04-01T15:02:43;47159.34;;;-143.51;100.00
44309;BME280;30022;55.846;37.340;2023-04-01T15:05:15;47262.03;;;-143.51;100.00
44309;BME280;30022;55.846;37.340;2023-04-01T15:20:45;47321.28;;;-143.51;100.00
44309;BME280;30022;55.846;37.340;2023-04-01T15:31:18;47538.56;;;-143.51;100.00
44309;BME280;30022;55.846;37.340;2023-04-01T15:41:49;47700.56;;;-143.51;100.00
44309;BME280;30022;55.846;37.340;2023-04-01T15:46:53;47965.25;;;-143.51;100.00
44309;BME280;30022;55.846;37.340;2023-04-01T15:59:55;48312.97;;;-143.51;100.00
44309;BME280;30022;55.846;37.340;2023-04-01T16:02:34;48538.19;;;-143.51;100.00
44309;BME280;30022;55.846;37.340;2023-04-01T16:10:29;49000.56;;;-143.51;100.00
44309;BME280;30022;55.846;37.340;2023-04-01T16:15:47;49306.88;;;-143.51;100.00
44309;BME280;30022;55.846;37.340;2023-04-01T16:26:05;49854.31;;;-143.51;100.00
44309;BME280;30022;55.846;37.340;2023-04-01T16:31:13;50308.91;;;-143.51;100.00
44309;BME280;30022;55.846;37.340;2023-04-01T16:33:48;50093.47;;;-143.51;100.00
44309;BME280;30022;55.846;37.340;2023-04-01T16:41:33;49401.72;;;-143.51;100.00
44309;BME280;30022;55.846;37.340;2023-04-01T16:49:53;49797.00;;;-143.51;100.00
44309;BME280;30022;55.846;37.340;2023-04-01T16:52:34;48980.81;;;-143.51;100.00
44309;BME280;30022;55.846;37.340;2023-04-01T16:55:11;49285.13;;;-143.51;100.00
44309;BME280;30022;55.846;37.340;2023-04-01T17:00:23;49332.56;;;-143.51;100.00
44309;BME280;30022;55.846;37.340;2023-04-01T17:16:18;49182.38;;;-143.51;100.00
44309;BME280;30022;55.846;37.340;2023-04-01T17:21:16;49196.19;;;-143.51;100.00
44309;BME280;30022;55.846;37.340;2023-04-01T17:26:23;48941.28;;;-143.51;100.00
44309;BME280;30022;55.846;37.340;2023-04-01T17:28:57;49202.13;;;-143.51;100.00
44309;BME280;30022;55.846;37.340;2023-04-01T17:31:36;49312.78;;;-143.51;100.00
44309;BME280;30022;55.846;37.340;2023-04-01T17:39:25;49516.34;;;-143.51;100.00
44309;BME280;30022;55.846;37.340;2023-04-01T17:41:57;49263.38;;;-143.51;100.00
44309;BME280;30022;55.846;37.340;2023-04-01T18:21:05;49638.88;;;-143.51;100.00
44309;BME280;30022;55.846;37.340;2023-04-01T18:23:39;49443.22;;;-143.51;100.00
44309;BME280;30022;55.846;37.340;2023-04-01T18:26:10;49233.75;;;-143.51;100.00
44309;BME280;30022;55.846;37.340;2023-04-01T18:28:39;49522.28;;;-143.51;100.00
44309;BME280;30022;55.846;37.340;2023-04-01T18:33:54;49589.47;;;-143.51;100.00
44309;BME280;30022;55.846;37.340;2023-04-01T18:38:57;49810.81;;;-143.51;100.00
44309;BME280;30022;55.846;37.340;2023-04-01T18:41:36;49389.88;;;-143.51;100.00
44309;BME280;30022;55.846;37.340;2023-04-01T18:47:08;49595.41;;;-143.51;100.00
44309;BME280;30022;55.846;37.340;2023-04-01T18:52:24;49798.97;;;-143.51;100.00
44309;BME280;30022;55.846;37.340;2023-04-01T18:57:42;49850.34;;;-143.51;100.00
44309;BME280;30022;55.846;37.340;2023-04-01T19:00:19;49951.16;;;-143.51;100.00
44309;BME280;30022;55.846;37.340;2023-04-01T19:02:58;49255.47;;;-143.51;100.00
44309;BME280;30022;55.846;37.340;2023-04-01T19:05:39;49632.94;;;-143.51;100.00
44309;BME280;30022;55.846;37.340;2023-04-01T19:13:19;49763.38;;;-143.51;100.00
44309;BME280;30022;55.846;37.340;2023-04-01T19:16:05;50012.41;;;-143.51;100.00
44309;BME280;30022;55.846;37.340;2023-04-01T19:24:12;49945.22;;;-143.51;100.00
44309;BME280;30022;55.846;37.340;2023-04-01T19:31:47;50188.34;;;-143.51;100.00
44309;BME280;30022;55.846;37.340;2023-04-01T19:52:36;50510.53;;;-143.51;100.00
44309;BME280;30022;55.846;37.340;2023-04-01T19:58:22;50559.97;;;-143.51;100.00
44309;BME280;30022;55.846;37.340;2023-04-01T20:00:22;50799.16;;;-143.51;100.00
44309;BME280;30022;55.846;37.340;2023-04-01T20:02:52;50346.47;;;-143.51;100.00
44309;BME280;30022;55.846;37.340;2023-04-01T20:05:30;50435.44;;;-143.51;100.00
44309;BME280;30022;55.846;37.340;2023-04-01T20:08:00;51034.44;;;-143.51;100.00
44309;BME280;30022;55.846;37.340;2023-04-01T20:10:32;51188.63;;;-143.51;100.00
44309;BME280;30022;55.846;37.340;2023-04-01T20:15:30;51103.63;;;-143.51;100.00
44309;BME280;30022;55.846;37.340;2023-04-01T20:17:58;51340.88;;;-143.51;100.00
44309;BME280;30022;55.846;37.340;2023-04-01T20:20:28;51495.09;;;-143.51;100.00
44309;BME280;30022;55.846;37.340;2023-04-01T20:23:01;51514.88;;;-143.51;100.00
44309;BME280;30022;55.846;37.340;2023-04-01T20:25:52;51522.78;;;-143.51;100.00
44309;BME280;30022;55.846;37.340;2023-04-01T20:46:50;51271.69;;;-143.51;100.00
44309;BME280;30022;55.846;37.340;2023-04-01T20:52:17;51295.41;;;-143.51;100.00
44309;BME280;30022;55.846;37.340;2023-04-01T20:55:02;51505.00;;;-143.51;100.00
44309;BME280;30022;55.846;37.340;2023-04-01T20:57:38;51578.16;;;-143.51;100.00
44309;BME280;30022;55.846;37.340;2023-04-01T21:00:23;51609.78;;;-143.51;100.00
44309;BME280;30022;55.846;37.340;2023-04-01T21:05:31;51880.69;;;-143.51;100.00
44309;BME280;30022;55.846;37.340;2023-04-01T21:10:43;51431.81;;;-143.51;100.00
44309;BME280;30022;55.846;37.340;2023-04-01T21:18:45;52212.91;;;-143.51;100.00
44309;BME280;30022;55.846;37.340;2023-04-01T21:31:57;51677.00;;;-143.51;100.00
44309;BME280;30022;55.846;37.340;2023-04-01T21:34:33;52258.41;;;-143.51;100.00
44309;BME280;30022;55.846;37.340;2023-04-01T21:37:05;52337.50;;;-143.51;100.00
44309;BME280;30022;55.846;37.340;2023-04-01T21:42:04;51734.34;;;-143.51;100.00
44309;BME280;30022;55.846;37.340;2023-04-01T21:47:19;51973.63;;;-143.51;100.00
44309;BME280;30022;55.846;37.340;2023-04-01T21:50:00;52242.59;;;-143.51;100.00
44309;BME280;30022;55.846;37.340;2023-04-01T21:52:38;52659.88;;;-143.51;100.00
44309;BME280;30022;55.846;37.340;2023-04-01T22:00:21;51991.44;;;-143.51;100.00
44309;BME280;30022;55.846;37.340;2023-04-01T22:10:43;51760.06;;;-143.51;100.00
44309;BME280;30022;55.846;37.340;2023-04-01T22:13:10;52337.50;;;-143.51;100.00
44309;BME280;30022;55.846;37.340;2023-04-01T22:18:33;51584.09;;;-143.51;100.00
44309;BME280;30022;55.846;37.340;2023-04-01T22:26:17;52327.63;;;-143.51;100.00